Terminal Aerodrome Forecast
Issued by NWS El Paso, TX

Home | Current Version | Previous Version | Text Only | Print | Product List | Glossary On
Versions: 1 2 3 4 5 6 7 8 9 10 11 12
000
FTUS44 KEPZ 170534
TAFELP
TAF
KELP 170534Z 1706/1806 23010KT P6SM FEW100 BKN250
     FM171300 36007KT P6SM VCSH BKN080 OVC120
     FM171700 01007KT P6SM -SHRA BKN050 OVC100
     FM180300 02010KT P6SM VCSH BKN050 OVC100=

USA.gov is the U.S. government's official web portal to all federal, state and local government web resources and services.